Time;durP1;ratioP1;P1;durP2;ratioP2;P2;SDS_P1;SDS_P2;PMS_P1;PMS_P2;Temp;Humidity;BMP_temperature;BMP_pressure;BME280_temperature;BME280_humidity;BME280_pressure;Samples;Min_cycle;Max_cycle;Signal;HPM_P1;HPM_P2
2022/12/10 00:00:24;;;;;;;16.17;12.67;;;2.60;99.90;;;;;;5001323;28;20438;-58
2022/12/10 00:02:49;;;;;;;14.13;11.67;;;2.50;99.90;;;;;;4994827;28;20468;-58
2022/12/10 00:05:15;;;;;;;15.87;11.43;;;2.50;99.90;;;;;;4992781;28;20502;-58
2022/12/10 00:07:41;;;;;;;15.73;12.00;;;2.50;99.90;;;;;;4994748;28;20286;-58
2022/12/10 00:10:07;;;;;;;13.13;10.63;;;2.60;99.90;;;;;;5036577;28;20233;-57
2022/12/10 00:12:32;;;;;;;14.10;11.37;;;2.60;99.90;;;;;;5020960;28;20230;-58
2022/12/10 00:14:58;;;;;;;15.10;11.93;;;2.70;99.90;;;;;;5000439;28;20203;-58
2022/12/10 00:17:23;;;;;;;15.90;11.80;;;2.50;99.90;;;;;;5016050;28;20191;-58
2022/12/10 00:19:49;;;;;;;19.03;13.13;;;2.50;99.90;;;;;;5004986;28;20237;-58
2022/12/10 00:22:15;;;;;;;17.43;11.17;;;2.50;99.90;;;;;;5005399;28;20206;-58
2022/12/10 00:24:41;;;;;;;13.83;10.47;;;2.50;99.90;;;;;;5012687;28;20192;-58
2022/12/10 00:27:06;;;;;;;17.60;13.03;;;2.60;99.90;;;;;;5011137;28;20222;-58
2022/12/10 00:29:32;;;;;;;13.57;10.17;;;2.60;99.90;;;;;;5015691;28;20229;-59
2022/12/10 00:31:57;;;;;;;17.23;12.83;;;2.60;99.90;;;;;;5019466;28;20304;-59
2022/12/10 00:34:23;;;;;;;16.40;12.53;;;2.60;99.90;;;;;;5017648;28;20186;-59
2022/12/10 00:36:49;;;;;;;13.60;11.20;;;2.60;99.90;;;;;;5003140;28;20270;-59
2022/12/10 00:39:17;;;;;;;15.20;11.87;;;2.60;99.90;;;;;;5034936;28;20191;-58
2022/12/10 00:41:43;;;;;;;18.87;11.83;;;2.60;99.90;;;;;;5033226;28;20190;-59
2022/12/10 00:44:09;;;;;;;13.23;9.87;;;2.60;99.90;;;;;;5019000;28;20988;-58
2022/12/10 00:46:35;;;;;;;15.90;11.73;;;2.70;99.90;;;;;;5007272;28;20226;-59
2022/12/10 00:49:02;;;;;;;11.93;9.50;;;2.70;99.90;;;;;;5035302;28;20247;-59
2022/12/10 00:51:28;;;;;;;22.80;14.23;;;2.70;99.90;;;;;;5035366;28;20433;-59
2022/12/10 00:53:56;;;;;;;14.43;10.70;;;2.60;99.90;;;;;;5026642;28;20495;-59
2022/12/10 00:56:24;;;;;;;17.83;13.37;;;2.60;99.90;;;;;;5020696;28;20187;-58
2022/12/10 00:58:51;;;;;;;16.87;12.43;;;2.70;99.90;;;;;;5035267;28;20442;-59
2022/12/10 01:01:23;;;;;;;14.13;10.93;;;2.70;99.90;;;;;;5021030;28;20432;-59
2022/12/10 01:03:52;;;;;;;14.00;11.30;;;2.70;99.90;;;;;;5034564;28;20442;-59
2022/12/10 01:06:33;;;;;;;15.43;11.93;;;2.70;99.90;;;;;;5019703;28;20508;-59
2022/12/10 01:09:01;;;;;;;17.47;12.63;;;2.70;99.90;;;;;;5029045;28;20465;-59
2022/12/10 01:11:31;;;;;;;16.20;13.03;;;2.60;99.90;;;;;;5024299;28;20471;-59
2022/12/10 01:13:57;;;;;;;13.60;10.00;;;2.60;99.90;;;;;;5034110;28;20434;-59
2022/12/10 01:16:23;;;;;;;11.47;8.97;;;2.70;99.90;;;;;;5034651;28;20446;-59
2022/12/10 01:18:49;;;;;;;13.07;10.43;;;2.70;99.90;;;;;;5013665;28;20610;-59
2022/12/10 01:21:19;;;;;;;16.27;12.23;;;2.70;99.90;;;;;;5013645;28;20517;-59
2022/12/10 01:23:47;;;;;;;15.93;11.03;;;2.70;99.90;;;;;;5034779;28;20194;-59
2022/12/10 01:26:23;;;;;;;16.43;10.93;;;2.70;99.90;;;;;;5030367;28;20426;-59
2022/12/10 01:28:50;;;;;;;16.90;12.57;;;2.70;99.90;;;;;;5020151;28;20470;-59
2022/12/10 01:31:22;;;;;;;13.93;11.17;;;2.60;99.90;;;;;;5017477;28;20864;-58
2022/12/10 01:33:48;;;;;;;17.63;13.27;;;2.60;99.90;;;;;;5033918;28;20439;-59
2022/12/10 01:36:16;;;;;;;16.60;13.10;;;2.70;99.90;;;;;;5031031;28;20426;-59
2022/12/10 01:38:43;;;;;;;16.83;11.57;;;2.60;99.90;;;;;;5029407;28;20198;-59
2022/12/10 01:41:15;;;;;;;16.33;13.07;;;2.70;99.90;;;;;;5032900;28;20438;-59
2022/12/10 01:43:54;;;;;;;17.90;13.73;;;2.60;99.90;;;;;;5031704;28;20457;-59
2022/12/10 01:46:21;;;;;;;12.67;10.63;;;2.60;99.90;;;;;;5028473;28;20520;-59
2022/12/10 01:48:49;;;;;;;12.90;9.63;;;2.60;99.90;;;;;;5017614;28;20465;-58
2022/12/10 01:51:15;;;;;;;14.57;9.57;;;2.70;99.90;;;;;;5029020;28;20497;-59
2022/12/10 01:53:42;;;;;;;19.83;13.10;;;2.70;99.90;;;;;;5021516;28;20452;-58
2022/12/10 01:56:10;;;;;;;15.13;10.93;;;2.70;99.90;;;;;;5031796;28;20438;-59
2022/12/10 01:58:37;;;;;;;14.37;11.07;;;2.70;99.90;;;;;;5023143;28;20422;-58
2022/12/10 02:01:19;;;;;;;21.03;14.27;;;2.80;99.90;;;;;;5018061;28;20434;-59
2022/12/10 02:04:15;;;;;;;18.13;12.50;;;2.80;99.90;;;;;;5034134;28;20520;-59
2022/12/10 02:06:48;;;;;;;12.97;9.87;;;2.80;99.90;;;;;;5001852;28;20442;-59
2022/12/10 02:09:22;;;;;;;17.03;10.90;;;2.80;99.90;;;;;;5024330;28;20458;-59
2022/12/10 02:12:05;;;;;;;14.97;11.23;;;2.90;99.90;;;;;;5031452;28;20432;-59
2022/12/10 02:14:52;;;;;;;18.87;13.80;;;2.80;99.90;;;;;;5021270;28;20464;-58
2022/12/10 02:17:32;;;;;;;16.47;12.20;;;2.90;99.90;;;;;;5021722;28;20422;-59
2022/12/10 02:20:15;;;;;;;17.57;13.27;;;2.90;99.90;;;;;;5034317;28;20480;-59
2022/12/10 02:22:48;;;;;;;19.80;14.83;;;2.90;99.90;;;;;;5041614;28;20427;-59
2022/12/10 02:25:16;;;;;;;15.60;10.73;;;2.90;99.90;;;;;;5030109;28;20440;-58
2022/12/10 02:27:57;;;;;;;13.47;11.13;;;2.90;99.90;;;;;;5031865;28;20875;-58
2022/12/10 02:30:22;;;;;;;16.90;12.50;;;2.90;99.90;;;;;;5024978;28;20445;-59
2022/12/10 02:32:50;;;;;;;15.17;11.10;;;2.90;99.90;;;;;;5014897;28;20426;-59
2022/12/10 02:35:22;;;;;;;11.40;10.23;;;2.90;99.90;;;;;;5033836;28;20187;-59
2022/12/10 02:38:03;;;;;;;18.63;14.27;;;2.90;99.90;;;;;;5030075;28;20511;-59
2022/12/10 02:40:35;;;;;;;17.63;13.90;;;2.90;99.90;;;;;;5028043;28;20426;-58
2022/12/10 02:43:01;;;;;;;14.63;11.67;;;2.80;99.90;;;;;;5020836;28;20436;-59
2022/12/10 02:45:29;;;;;;;15.73;11.63;;;2.90;99.90;;;;;;5013755;28;20489;-59
2022/12/10 02:47:58;;;;;;;12.30;9.83;;;2.90;99.90;;;;;;5032662;28;20249;-59
2022/12/10 02:50:24;;;;;;;18.13;14.73;;;2.90;99.90;;;;;;5033387;28;20963;-59
2022/12/10 02:52:50;;;;;;;18.37;13.70;;;2.90;99.90;;;;;;5033201;28;20437;-59
2022/12/10 02:55:19;;;;;;;13.57;11.13;;;2.90;99.90;;;;;;5031624;28;20438;-59
2022/12/10 02:58:14;;;;;;;13.50;11.50;;;2.90;99.90;;;;;;5014624;28;20437;-59
2022/12/10 03:00:53;;;;;;;18.00;12.03;;;2.90;99.90;;;;;;5028919;28;20433;-59
2022/12/10 03:03:37;;;;;;;17.10;12.90;;;3.00;99.90;;;;;;5024022;28;20468;-59
2022/12/10 03:06:13;;;;;;;17.73;14.13;;;3.00;99.90;;;;;;5024369;28;20494;-59
2022/12/10 03:08:47;;;;;;;16.37;12.50;;;3.00;99.90;;;;;;5033177;28;20504;-58
2022/12/10 03:11:15;;;;;;;14.33;11.83;;;3.00;99.90;;;;;;5036372;28;20440;-58
2022/12/10 03:14:06;;;;;;;13.97;10.47;;;3.10;99.90;;;;;;5032118;28;20437;-59
2022/12/10 03:16:39;;;;;;;15.77;11.30;;;3.10;99.90;;;;;;5032501;28;20432;-59
2022/12/10 03:19:10;;;;;;;18.50;14.47;;;3.10;99.90;;;;;;5011228;28;20438;-58
2022/12/10 03:21:39;;;;;;;17.13;12.23;;;3.10;99.90;;;;;;5028919;28;20453;-57
2022/12/10 03:24:05;;;;;;;16.20;12.37;;;3.10;99.90;;;;;;5033100;28;20472;-59
2022/12/10 03:26:32;;;;;;;15.53;12.37;;;3.10;99.90;;;;;;5014883;28;20444;-58
2022/12/10 03:29:06;;;;;;;15.33;12.57;;;3.10;99.90;;;;;;5004111;28;20487;-59
2022/12/10 03:31:34;;;;;;;16.00;12.43;;;3.10;99.90;;;;;;5028666;28;20462;-59
2022/12/10 03:34:01;;;;;;;15.33;10.83;;;3.10;99.90;;;;;;5030177;28;20442;-59
2022/12/10 03:36:28;;;;;;;15.57;11.00;;;3.10;99.90;;;;;;5014992;28;20478;-59
2022/12/10 03:38:54;;;;;;;13.53;9.70;;;3.10;99.90;;;;;;5023221;28;20444;-59
2022/12/10 03:41:20;;;;;;;14.70;10.73;;;3.20;99.90;;;;;;5021024;28;20422;-59
2022/12/10 03:43:59;;;;;;;17.67;12.63;;;3.20;99.90;;;;;;5000859;28;20243;-59
2022/12/10 03:46:27;;;;;;;20.73;14.60;;;3.20;99.90;;;;;;5010884;28;20230;-59
2022/12/10 03:48:53;;;;;;;17.57;12.47;;;3.10;99.90;;;;;;5024499;28;20481;-59
2022/12/10 03:51:20;;;;;;;15.73;11.93;;;3.10;99.90;;;;;;5027437;28;20898;-59
2022/12/10 03:53:46;;;;;;;16.57;11.27;;;3.10;99.90;;;;;;5015957;28;20791;-59
2022/12/10 03:56:11;;;;;;;20.33;14.90;;;3.20;99.90;;;;;;5010573;28;20437;-59
2022/12/10 03:58:37;;;;;;;15.87;12.53;;;3.10;99.90;;;;;;5011563;28;20220;-59
2022/12/10 04:01:04;;;;;;;15.93;11.40;;;3.20;99.90;;;;;;5014294;28;20195;-59
2022/12/10 04:03:29;;;;;;;13.77;11.07;;;3.20;99.90;;;;;;5028053;28;20196;-59
2022/12/10 04:06:04;;;;;;;21.93;14.37;;;3.20;99.90;;;;;;5000673;28;20448;-59
2022/12/10 04:08:30;;;;;;;19.80;13.47;;;3.20;99.90;;;;;;5031049;28;20219;-59
2022/12/10 04:11:02;;;;;;;13.83;10.67;;;3.20;99.90;;;;;;5036676;28;20935;-59
2022/12/10 04:16:26;;;;;;;9.97;8.43;;;3.30;99.90;;;;;;5035497;28;20413;-59
2022/12/10 04:18:52;;;;;;;12.80;10.00;;;3.30;99.90;;;;;;5003989;28;20552;-59
2022/12/10 04:26:55;;;;;;;13.77;10.07;;;3.30;99.90;;;;;;5021299;28;20443;-59
2022/12/10 04:29:25;;;;;;;11.90;9.00;;;3.30;99.90;;;;;;5011137;28;20468;-59
2022/12/10 04:31:52;;;;;;;19.97;14.07;;;3.30;99.90;;;;;;5034541;28;20425;-59
2022/12/10 04:34:18;;;;;;;17.67;13.20;;;3.30;99.90;;;;;;5036351;28;20470;-59
2022/12/10 04:36:44;;;;;;;14.27;10.83;;;3.30;99.90;;;;;;5015605;28;20434;-59
2022/12/10 04:39:13;;;;;;;17.27;13.40;;;3.30;99.90;;;;;;5019027;28;20503;-59
2022/12/10 04:41:41;;;;;;;14.87;11.40;;;3.30;99.90;;;;;;5033636;28;20218;-59
2022/12/10 04:44:07;;;;;;;17.50;13.53;;;3.30;99.90;;;;;;5051604;28;20509;-59
2022/12/10 04:46:33;;;;;;;17.93;12.53;;;3.30;99.90;;;;;;5025338;28;20514;-59
2022/12/10 04:48:59;;;;;;;15.50;11.53;;;3.30;99.90;;;;;;5026832;28;20532;-59
2022/12/10 04:51:25;;;;;;;13.43;9.50;;;3.30;99.90;;;;;;5003726;28;20234;-59
2022/12/10 04:53:50;;;;;;;14.63;11.90;;;3.30;99.90;;;;;;5027436;28;20187;-60
2022/12/10 04:56:16;;;;;;;13.70;10.53;;;3.30;99.90;;;;;;4988300;28;20188;-60
2022/12/10 04:58:42;;;;;;;13.03;10.17;;;3.30;99.90;;;;;;5028069;28;20190;-60
2022/12/10 05:01:10;;;;;;;13.20;9.93;;;3.30;99.90;;;;;;5018611;28;20187;-59
2022/12/10 05:03:36;;;;;;;20.10;14.60;;;3.30;99.90;;;;;;5017778;28;20199;-60
2022/12/10 05:06:03;;;;;;;15.93;12.40;;;3.30;99.90;;;;;;5027914;28;20513;-58
2022/12/10 05:08:29;;;;;;;15.80;11.63;;;3.30;99.90;;;;;;5011096;28;20492;-57
2022/12/10 05:10:55;;;;;;;17.63;14.30;;;3.30;99.90;;;;;;5031481;28;20493;-58
2022/12/10 05:13:21;;;;;;;14.70;11.47;;;3.30;99.90;;;;;;5010767;28;20437;-58
2022/12/10 05:15:46;;;;;;;15.00;11.37;;;3.30;99.90;;;;;;5028063;28;20419;-57
2022/12/10 05:18:12;;;;;;;13.50;11.80;;;3.30;99.90;;;;;;5028198;28;20183;-58
2022/12/10 05:20:37;;;;;;;17.37;12.13;;;3.30;99.90;;;;;;5014870;28;20200;-58
2022/12/10 05:25:53;;;;;;;12.90;9.83;;;3.30;99.90;;;;;;5019968;28;20287;-59
2022/12/10 05:28:22;;;;;;;14.17;10.87;;;3.30;99.90;;;;;;5014814;28;20465;-58
2022/12/10 05:30:48;;;;;;;17.33;13.43;;;3.30;99.90;;;;;;5035873;28;20429;-58
2022/12/10 05:33:15;;;;;;;12.90;11.47;;;3.30;99.90;;;;;;5024243;28;20425;-58
2022/12/10 05:35:40;;;;;;;21.80;14.50;;;3.30;99.90;;;;;;5005490;28;20190;-58
2022/12/10 05:38:06;;;;;;;14.20;11.03;;;3.30;99.90;;;;;;5012419;28;20440;-58
2022/12/10 05:40:36;;;;;;;13.87;11.27;;;3.30;99.90;;;;;;5002510;28;20300;-58
2022/12/10 05:43:02;;;;;;;14.50;10.97;;;3.30;99.90;;;;;;5019358;28;20241;-59
2022/12/10 05:45:28;;;;;;;10.60;8.87;;;3.30;99.90;;;;;;5019272;28;20470;-58
2022/12/10 05:47:54;;;;;;;11.80;9.97;;;3.30;99.90;;;;;;5008731;28;20196;-58
2022/12/10 05:50:20;;;;;;;12.03;9.80;;;3.30;99.90;;;;;;5002556;28;20222;-58
2022/12/10 05:52:45;;;;;;;12.40;9.13;;;3.40;99.90;;;;;;5016632;28;20191;-58
2022/12/10 05:55:11;;;;;;;20.17;14.47;;;3.40;99.90;;;;;;5028529;28;20248;-59
2022/12/10 05:57:37;;;;;;;14.53;11.67;;;3.40;99.90;;;;;;5004528;28;20703;-59
2022/12/10 06:00:04;;;;;;;14.17;10.03;;;3.40;99.90;;;;;;5025753;28;20190;-59
2022/12/10 06:02:33;;;;;;;10.90;9.13;;;3.50;99.90;;;;;;5022861;28;20809;-59
2022/12/10 06:04:58;;;;;;;16.83;13.93;;;3.50;99.90;;;;;;5022578;28;20429;-59
2022/12/10 06:07:24;;;;;;;10.83;8.73;;;3.50;99.90;;;;;;5009663;28;20500;-59
2022/12/10 06:09:50;;;;;;;12.93;10.00;;;3.50;99.90;;;;;;5024375;28;20297;-59
2022/12/10 06:12:16;;;;;;;10.60;9.10;;;3.50;99.90;;;;;;5024254;28;20509;-59
2022/12/10 06:14:42;;;;;;;12.50;9.67;;;3.50;99.90;;;;;;5027863;28;20185;-59
2022/12/10 06:17:08;;;;;;;15.00;12.43;;;3.50;99.90;;;;;;5024203;28;20426;-59
2022/12/10 06:19:34;;;;;;;12.90;9.27;;;3.50;99.90;;;;;;5014848;28;20197;-60
2022/12/10 06:22:00;;;;;;;13.17;9.73;;;3.50;99.90;;;;;;5033681;28;20190;-60
2022/12/10 06:24:25;;;;;;;13.90;11.67;;;3.50;99.90;;;;;;5010506;28;20655;-60
2022/12/10 06:26:51;;;;;;;13.37;9.80;;;3.50;99.90;;;;;;4992362;28;20463;-61
2022/12/10 06:29:17;;;;;;;9.87;8.37;;;3.60;99.90;;;;;;5009322;28;20254;-60
2022/12/10 06:31:43;;;;;;;12.40;9.20;;;3.60;99.90;;;;;;5005648;28;20186;-60
2022/12/10 06:34:09;;;;;;;14.60;10.07;;;3.60;99.90;;;;;;5019950;28;20498;-61
2022/12/10 06:36:35;;;;;;;14.50;10.60;;;3.60;99.90;;;;;;5029842;28;20187;-60
2022/12/10 06:39:00;;;;;;;13.40;9.73;;;3.60;99.90;;;;;;5013262;28;20191;-61
2022/12/10 06:41:26;;;;;;;11.10;10.00;;;3.60;99.90;;;;;;5019410;28;20198;-61
2022/12/10 06:43:52;;;;;;;12.30;9.60;;;3.60;99.90;;;;;;5011996;28;20238;-62
2022/12/10 06:46:20;;;;;;;19.37;14.07;;;3.70;99.90;;;;;;5013225;28;20203;-61
2022/12/10 06:48:46;;;;;;;13.13;11.47;;;3.60;99.90;;;;;;5029301;28;20198;-61
2022/12/10 06:51:13;;;;;;;17.17;12.33;;;3.60;99.90;;;;;;5009511;28;20436;-61
2022/12/10 06:53:40;;;;;;;12.97;10.67;;;3.60;99.90;;;;;;5029165;28;20472;-61
2022/12/10 06:56:08;;;;;;;17.20;12.40;;;3.60;99.90;;;;;;5029060;28;20434;-61
2022/12/10 06:58:35;;;;;;;17.90;13.43;;;3.60;99.90;;;;;;5033426;28;20429;-62
2022/12/10 07:01:27;;;;;;;17.47;11.60;;;3.60;99.90;;;;;;5029700;28;20488;-62
2022/12/10 07:03:55;;;;;;;13.47;9.93;;;3.60;99.90;;;;;;5027534;28;20940;-61
2022/12/10 07:06:21;;;;;;;18.60;12.77;;;3.60;99.90;;;;;;5018423;28;20430;-61
2022/12/10 07:08:47;;;;;;;15.87;11.70;;;3.60;99.90;;;;;;5032364;28;20468;-59
2022/12/10 07:11:15;;;;;;;15.90;12.67;;;3.60;99.90;;;;;;5017107;28;20441;-59
2022/12/10 07:13:41;;;;;;;15.33;12.13;;;3.60;99.90;;;;;;5036342;28;20442;-59
2022/12/10 07:16:20;;;;;;;14.00;12.07;;;3.60;99.90;;;;;;5019732;28;20458;-59
2022/12/10 07:18:46;;;;;;;18.73;13.43;;;3.60;99.90;;;;;;5020553;28;20216;-59
2022/12/10 07:21:17;;;;;;;15.47;12.23;;;3.60;99.90;;;;;;5002088;28;20438;-60
2022/12/10 07:23:43;;;;;;;15.33;12.20;;;3.60;99.90;;;;;;5018419;28;20191;-60
2022/12/10 07:26:09;;;;;;;16.83;13.10;;;3.60;99.90;;;;;;5006352;28;20466;-60
2022/12/10 07:28:34;;;;;;;17.67;12.73;;;3.60;99.90;;;;;;5006693;28;20466;-60
2022/12/10 07:31:02;;;;;;;15.70;12.70;;;3.60;99.90;;;;;;5023308;28;20203;-60
2022/12/10 07:33:27;;;;;;;15.53;12.37;;;3.60;99.90;;;;;;5011104;28;20198;-63
2022/12/10 07:35:53;;;;;;;14.43;11.83;;;3.60;99.90;;;;;;4992811;28;20426;-59
2022/12/10 07:38:19;;;;;;;17.33;13.73;;;3.60;99.90;;;;;;5012571;28;20593;-59
2022/12/10 07:40:44;;;;;;;18.67;13.53;;;3.60;99.90;;;;;;5015782;28;20211;-59
2022/12/10 07:43:10;;;;;;;15.90;11.70;;;3.60;99.90;;;;;;5001705;28;20217;-59
2022/12/10 07:45:35;;;;;;;14.90;11.90;;;3.60;99.90;;;;;;5027383;28;20242;-59
2022/12/10 07:48:01;;;;;;;16.77;13.83;;;3.70;99.90;;;;;;4998263;28;20191;-60
2022/12/10 07:50:27;;;;;;;16.47;12.27;;;3.70;99.90;;;;;;5019697;28;20179;-60
2022/12/10 07:52:52;;;;;;;11.77;10.17;;;3.70;99.90;;;;;;5020521;28;20190;-60
2022/12/10 07:55:18;;;;;;;14.40;11.60;;;3.70;99.90;;;;;;5037916;28;20222;-60
2022/12/10 07:57:44;;;;;;;13.17;11.37;;;3.80;99.90;;;;;;5034514;28;20289;-60
2022/12/10 08:00:10;;;;;;;15.03;13.33;;;3.80;99.90;;;;;;5032845;28;20278;-59
2022/12/10 08:02:36;;;;;;;15.67;13.07;;;3.90;99.90;;;;;;5016705;28;20198;-59
2022/12/10 08:05:01;;;;;;;19.20;14.10;;;3.70;99.90;;;;;;5000472;28;20437;-60
2022/12/10 08:07:27;;;;;;;16.60;12.70;;;3.70;99.90;;;;;;5000433;28;20188;-60
2022/12/10 08:09:52;;;;;;;16.23;12.83;;;3.70;99.90;;;;;;4991325;28;20231;-60
2022/12/10 08:12:18;;;;;;;16.00;13.23;;;3.60;99.90;;;;;;4999694;28;20196;-60
2022/12/10 08:14:44;;;;;;;18.60;13.80;;;3.60;99.90;;;;;;5012624;28;20184;-60
2022/12/10 08:17:09;;;;;;;17.13;14.20;;;3.60;99.90;;;;;;5010393;28;20199;-60
2022/12/10 08:19:35;;;;;;;19.87;14.13;;;3.70;99.90;;;;;;5000889;28;20194;-59
2022/12/10 08:22:01;;;;;;;17.90;14.07;;;3.70;99.90;;;;;;5015036;28;20268;-59
2022/12/10 08:24:26;;;;;;;15.67;13.00;;;3.70;99.90;;;;;;5001399;28;20194;-60
2022/12/10 08:26:52;;;;;;;14.43;12.17;;;3.80;99.90;;;;;;4999803;28;20191;-60
2022/12/10 08:29:17;;;;;;;16.20;12.90;;;3.90;99.90;;;;;;5017105;28;20221;-59
2022/12/10 08:31:43;;;;;;;19.60;14.50;;;3.90;99.90;;;;;;5019164;28;20245;-59
2022/12/10 08:34:13;;;;;;;15.87;12.70;;;3.90;99.90;;;;;;4999214;28;20207;-60
2022/12/10 08:36:39;;;;;;;13.87;11.40;;;3.90;99.90;;;;;;4999087;28;20180;-60
2022/12/10 08:39:05;;;;;;;19.33;13.77;;;3.90;99.90;;;;;;5029515;28;20453;-60
2022/12/10 08:41:30;;;;;;;14.73;11.17;;;3.90;99.90;;;;;;5034439;28;20218;-60
2022/12/10 08:43:56;;;;;;;20.67;13.40;;;3.90;99.90;;;;;;4997030;28;20239;-60
2022/12/10 08:46:22;;;;;;;15.27;12.57;;;4.00;99.90;;;;;;5013779;28;20245;-60
2022/12/10 08:48:48;;;;;;;19.47;12.43;;;4.00;99.90;;;;;;4993038;28;20582;-59
2022/12/10 08:51:17;;;;;;;17.90;14.17;;;4.00;99.90;;;;;;5014602;28;20415;-60
2022/12/10 08:53:43;;;;;;;19.77;13.70;;;4.00;99.90;;;;;;5023819;28;20207;-59
2022/12/10 08:56:09;;;;;;;19.43;13.50;;;3.90;99.90;;;;;;5016196;28;20461;-59
2022/12/10 08:58:36;;;;;;;14.50;12.07;;;3.90;99.90;;;;;;5020237;28;20199;-60
2022/12/10 09:01:07;;;;;;;20.10;13.93;;;4.00;99.90;;;;;;5031587;28;20213;-60
2022/12/10 09:03:33;;;;;;;21.50;14.30;;;4.00;99.90;;;;;;5033156;28;20456;-60
2022/12/10 09:06:05;;;;;;;21.17;14.70;;;4.00;99.90;;;;;;5015032;28;20468;-60
2022/12/10 09:08:30;;;;;;;19.57;14.20;;;4.00;99.90;;;;;;5027558;28;20213;-60
2022/12/10 09:10:56;;;;;;;17.37;13.43;;;4.00;99.90;;;;;;5017894;28;20433;-60
2022/12/10 09:13:22;;;;;;;21.70;14.47;;;4.10;99.90;;;;;;5005841;28;20220;-60
2022/12/10 09:15:52;;;;;;;14.93;11.97;;;4.10;99.90;;;;;;4993079;28;20191;-60
2022/12/10 09:18:18;;;;;;;19.93;14.37;;;4.10;99.90;;;;;;5027925;28;20198;-59
2022/12/10 09:20:43;;;;;;;20.97;15.53;;;4.10;99.90;;;;;;5014342;28;20937;-59
2022/12/10 09:23:09;;;;;;;21.53;14.90;;;4.10;99.90;;;;;;5027437;28;20186;-60
2022/12/10 09:25:35;;;;;;;22.10;15.67;;;4.10;99.90;;;;;;5014839;28;20194;-60
2022/12/10 09:28:00;;;;;;;19.33;14.07;;;4.10;99.90;;;;;;5000561;28;20194;-59
2022/12/10 09:30:26;;;;;;;18.53;12.77;;;4.10;99.90;;;;;;4997252;28;20284;-59
2022/12/10 09:32:52;;;;;;;16.97;11.43;;;4.20;99.90;;;;;;5009183;28;20187;-59
2022/12/10 09:35:17;;;;;;;18.00;12.90;;;4.10;99.90;;;;;;5009282;28;20630;-59
2022/12/10 09:37:43;;;;;;;19.97;14.60;;;4.20;99.90;;;;;;5007260;28;20221;-59
2022/12/10 09:40:22;;;;;;;21.83;16.30;;;4.20;99.90;;;;;;4999042;28;20265;-59
2022/12/10 09:43:21;;;;;;;18.17;14.33;;;4.20;99.90;;;;;;5031693;28;20673;-58
2022/12/10 09:45:52;;;;;;;16.87;13.60;;;4.30;99.90;;;;;;5027972;28;20488;-59
2022/12/10 09:48:28;;;;;;;18.93;14.73;;;4.30;99.90;;;;;;5031311;28;20500;-59
2022/12/10 09:51:10;;;;;;;23.00;15.33;;;4.20;99.90;;;;;;5032988;28;20437;-59
2022/12/10 09:53:37;;;;;;;19.93;14.30;;;4.20;99.90;;;;;;5027717;28;20516;-59
2022/12/10 09:56:03;;;;;;;20.37;14.93;;;4.10;99.90;;;;;;4996764;28;20442;-59
2022/12/10 09:58:29;;;;;;;23.70;15.30;;;4.10;99.90;;;;;;5024531;28;20517;-59
2022/12/10 10:01:02;;;;;;;21.27;13.57;;;4.10;99.90;;;;;;5014945;28;20519;-59
2022/12/10 10:03:33;;;;;;;18.77;13.03;;;4.00;99.90;;;;;;5027439;28;20194;-60
2022/12/10 10:05:59;;;;;;;19.50;13.37;;;4.00;99.90;;;;;;5032260;28;20421;-59
2022/12/10 10:08:33;;;;;;;17.43;13.40;;;4.00;99.90;;;;;;5004677;28;20489;-59
2022/12/10 10:10:59;;;;;;;19.40;13.37;;;4.00;99.90;;;;;;5029203;28;20187;-60
2022/12/10 10:13:47;;;;;;;16.33;12.20;;;4.00;99.90;;;;;;5032039;28;20912;-59
2022/12/10 10:16:21;;;;;;;18.27;12.23;;;4.10;99.90;;;;;;5040058;28;20493;-59
2022/12/10 10:18:58;;;;;;;16.23;11.87;;;4.10;99.90;;;;;;5032732;28;20904;-59
2022/12/10 10:21:27;;;;;;;16.73;11.93;;;4.20;99.90;;;;;;5041869;28;20437;-59
2022/12/10 10:23:54;;;;;;;13.13;10.27;;;4.20;99.90;;;;;;5027299;28;20437;-59
2022/12/10 10:26:20;;;;;;;14.53;10.43;;;4.20;99.90;;;;;;5000799;28;20478;-60
2022/12/10 10:28:48;;;;;;;15.60;10.97;;;4.20;99.90;;;;;;5015122;28;20493;-60
2022/12/10 10:31:26;;;;;;;13.43;10.23;;;4.30;99.90;;;;;;5027336;28;20187;-60
2022/12/10 10:33:58;;;;;;;14.77;11.70;;;4.30;99.90;;;;;;5031435;28;20487;-60
2022/12/10 10:36:31;;;;;;;15.23;11.07;;;4.30;99.90;;;;;;5032111;28;20429;-59
2022/12/10 10:39:18;;;;;;;13.97;10.07;;;4.30;99.90;;;;;;5025704;28;20454;-59
2022/12/10 10:41:48;;;;;;;10.57;8.57;;;4.30;99.90;;;;;;5019797;28;20456;-59
2022/12/10 10:44:23;;;;;;;10.57;8.17;;;4.30;99.90;;;;;;5019417;28;20490;-59
2022/12/10 10:46:50;;;;;;;10.07;8.83;;;4.30;99.90;;;;;;5030349;28;20439;-59
2022/12/10 10:49:25;;;;;;;9.20;7.93;;;4.30;99.90;;;;;;5021537;28;20485;-60
2022/12/10 10:51:59;;;;;;;10.20;8.63;;;4.30;99.90;;;;;;5031791;28;20432;-60
2022/12/10 10:54:39;;;;;;;8.43;7.10;;;4.30;99.90;;;;;;5027454;28;20465;-59
2022/12/10 10:57:10;;;;;;;9.17;7.30;;;4.30;99.90;;;;;;5030495;28;20487;-60
2022/12/10 10:59:37;;;;;;;8.60;7.23;;;4.30;99.90;;;;;;5027694;28;20521;-60
2022/12/10 11:02:29;;;;;;;8.03;6.20;;;4.30;99.90;;;;;;5027347;28;20440;-60
2022/12/10 11:04:58;;;;;;;7.37;6.67;;;4.20;99.90;;;;;;5022773;28;20462;-59
2022/12/10 11:07:37;;;;;;;6.73;6.00;;;4.20;99.90;;;;;;4996921;28;20438;-60
2022/12/10 11:10:18;;;;;;;6.40;5.80;;;4.20;99.90;;;;;;5028531;28;20476;-60
2022/12/10 11:12:53;;;;;;;6.57;5.80;;;4.20;99.90;;;;;;5027063;28;20426;-59
2022/12/10 11:15:22;;;;;;;8.80;5.77;;;4.30;99.90;;;;;;5015048;28;20494;-60
2022/12/10 11:17:50;;;;;;;7.20;5.97;;;4.20;99.90;;;;;;5028754;28;20452;-60
2022/12/10 11:20:22;;;;;;;5.93;5.33;;;4.20;99.70;;;;;;5014513;28;20442;-60
2022/12/10 11:22:58;;;;;;;7.60;5.93;;;4.20;99.40;;;;;;5025994;28;20452;-60
2022/12/10 11:25:44;;;;;;;8.03;6.73;;;4.20;99.60;;;;;;5040048;28;20461;-60
2022/12/10 11:28:21;;;;;;;8.53;7.00;;;4.10;99.50;;;;;;5002580;28;20453;-59
2022/12/10 11:31:09;;;;;;;8.33;6.80;;;4.10;99.40;;;;;;5026499;28;20442;-60
2022/12/10 11:33:55;;;;;;;7.20;6.30;;;4.10;99.90;;;;;;5019270;28;20457;-60
2022/12/10 11:36:32;;;;;;;7.40;6.67;;;4.10;99.90;;;;;;5029736;28;20448;-60
2022/12/10 11:39:20;;;;;;;7.73;6.10;;;4.10;99.90;;;;;;5024538;28;20448;-59
2022/12/10 11:42:12;;;;;;;7.63;6.33;;;4.10;99.50;;;;;;5027380;28;20487;-59
2022/12/10 11:44:53;;;;;;;8.53;6.83;;;4.10;99.90;;;;;;5023585;28;20484;-59
2022/12/10 11:47:50;;;;;;;8.57;7.47;;;4.10;99.90;;;;;;5039473;28;20460;-60
2022/12/10 11:50:39;;;;;;;7.13;6.33;;;4.10;99.90;;;;;;5025551;28;20472;-59
2022/12/10 11:53:23;;;;;;;7.33;6.60;;;4.10;99.90;;;;;;5037359;28;20450;-59
2022/12/10 11:56:07;;;;;;;7.03;5.60;;;4.10;99.70;;;;;;5031044;28;20417;-59
2022/12/10 11:58:57;;;;;;;6.27;5.27;;;4.20;99.90;;;;;;5029713;28;20441;-59
2022/12/10 12:01:35;;;;;;;5.63;5.10;;;4.10;99.60;;;;;;5016486;28;20479;-59
2022/12/10 12:04:22;;;;;;;5.40;4.87;;;4.00;99.60;;;;;;5045129;28;20457;-59
2022/12/10 12:07:15;;;;;;;5.70;5.20;;;4.00;99.30;;;;;;5029929;28;20434;-59
2022/12/10 12:10:00;;;;;;;6.87;5.53;;;4.00;99.90;;;;;;5036660;28;20469;-60
2022/12/10 12:12:54;;;;;;;6.43;5.47;;;4.00;99.80;;;;;;5026252;28;20445;-60
2022/12/10 12:15:34;;;;;;;5.77;4.90;;;3.90;99.50;;;;;;5025298;28;20909;-59
2022/12/10 12:18:23;;;;;;;5.87;4.63;;;3.90;99.90;;;;;;5024015;28;20438;-59
2022/12/10 12:20:53;;;;;;;6.20;5.50;;;3.90;99.90;;;;;;5025281;28;20472;-60
2022/12/10 12:23:35;;;;;;;6.47;5.87;;;4.00;99.90;;;;;;5023717;28;20454;-59
2022/12/10 12:26:06;;;;;;;7.27;6.47;;;4.00;99.90;;;;;;5030210;28;20509;-60
2022/12/10 12:28:35;;;;;;;8.03;6.37;;;4.00;99.90;;;;;;5029569;28;20561;-60
2022/12/10 12:31:13;;;;;;;6.80;6.07;;;4.00;99.90;;;;;;5025976;28;20487;-59
2022/12/10 12:34:01;;;;;;;6.90;5.93;;;4.00;99.90;;;;;;5041650;28;20499;-59
2022/12/10 12:36:45;;;;;;;8.70;6.33;;;4.00;99.90;;;;;;5034075;28;20421;-60
2022/12/10 12:39:26;;;;;;;7.50;6.27;;;3.90;99.80;;;;;;5032609;28;20959;-60
2022/12/10 12:42:06;;;;;;;6.60;5.90;;;3.90;99.90;;;;;;5027461;28;20519;-60
2022/12/10 12:45:04;;;;;;;9.70;7.03;;;3.90;99.90;;;;;;5030631;28;20484;-59
2022/12/10 12:47:48;;;;;;;7.27;6.07;;;3.90;99.80;;;;;;5032700;28;20991;-60
2022/12/10 12:50:25;;;;;;;7.57;6.77;;;3.90;99.90;;;;;;5033111;28;20477;-59
2022/12/10 12:52:55;;;;;;;8.00;7.20;;;3.90;99.90;;;;;;5032925;28;20522;-59
2022/12/10 12:55:59;;;;;;;8.83;7.37;;;3.90;99.80;;;;;;5033191;28;20916;-59
2022/12/10 12:58:53;;;;;;;8.10;7.00;;;3.90;99.90;;;;;;5021216;28;20422;-59
2022/12/10 13:01:43;;;;;;;8.47;7.53;;;3.80;99.90;;;;;;5014108;28;20442;-60
2022/12/10 13:04:10;;;;;;;8.60;7.70;;;3.90;99.90;;;;;;5028625;28;20449;-60
2022/12/10 13:06:38;;;;;;;9.17;7.33;;;3.90;99.90;;;;;;5032429;28;20480;-60
2022/12/10 13:09:13;;;;;;;7.67;6.77;;;3.90;99.90;;;;;;5032784;28;20491;-60